createdAt,value
2023-04-15T00:00:40.298Z,99793.72
2023-04-15T00:03:20.194Z,99806.19
2023-04-15T00:05:55.968Z,99812.88
2023-04-15T00:08:35.585Z,99800.16
2023-04-15T00:11:11.682Z,99817.19
2023-04-15T00:13:51.822Z,99814.84
2023-04-15T00:16:31.970Z,99813.50
2023-04-15T00:19:09.838Z,99811.44
2023-04-15T00:21:48.534Z,99820.53
2023-04-15T00:24:32.613Z,99818.19
2023-04-15T00:27:22.494Z,99828.63
2023-04-15T00:30:09.211Z,99833.50
2023-04-15T00:33:07.093Z,99837.25
2023-04-15T00:35:46.057Z,99834.59
2023-04-15T00:38:29.106Z,99830.91
2023-04-15T00:41:04.588Z,99829.88
2023-04-15T00:43:38.948Z,99848.03
2023-04-15T00:46:20.894Z,99819.31
2023-04-15T00:48:56.980Z,99842.22
2023-04-15T00:51:41.815Z,99837.72
2023-04-15T00:54:15.589Z,99825.97
2023-04-15T00:56:56.655Z,99812.97
2023-04-15T00:59:33.292Z,99830.56
2023-04-15T01:02:11.007Z,99832.19
2023-04-15T01:04:49.099Z,99827.44
2023-04-15T01:07:27.341Z,99830.63
2023-04-15T01:09:58.326Z,99828.78
2023-04-15T01:12:45.401Z,99821.59
2023-04-15T01:15:21.070Z,99836.00
2023-04-15T01:17:52.289Z,99830.94
2023-04-15T01:20:29.138Z,99837.59
2023-04-15T01:23:22.128Z,99835.72
2023-04-15T01:26:02.224Z,99847.22
2023-04-15T01:28:40.496Z,99824.88
2023-04-15T01:31:21.690Z,99856.31
2023-04-15T01:34:04.369Z,99855.84
2023-04-15T01:36:39.945Z,99857.97
2023-04-15T01:39:19.719Z,99857.69
2023-04-15T01:42:00.696Z,99868.69
2023-04-15T01:44:33.607Z,99858.84
2023-04-15T01:47:09.875Z,99865.75
2023-04-15T01:49:43.636Z,99840.22
2023-04-15T01:52:18.205Z,99870.88
2023-04-15T01:55:02.662Z,99860.25
2023-04-15T01:57:48.043Z,99855.44
2023-04-15T02:00:19.861Z,99859.72
2023-04-15T02:02:53.449Z,99860.78
2023-04-15T02:05:36.428Z,99851.47
2023-04-15T02:08:12.065Z,99851.72
2023-04-15T02:10:44.711Z,99831.25
2023-04-15T02:13:24.201Z,99845.88
2023-04-15T02:16:08.381Z,99828.34
2023-04-15T02:18:40.162Z,99854.41
2023-04-15T02:21:19.185Z,99869.13
2023-04-15T02:23:56.965Z,99864.03
2023-04-15T02:26:38.363Z,99859.28
2023-04-15T02:29:12.090Z,99855.53
2023-04-15T02:31:55.092Z,99860.59
2023-04-15T02:34:33.485Z,99855.25
2023-04-15T02:37:18.830Z,99853.38
2023-04-15T02:39:56.192Z,99850.78
2023-04-15T02:42:34.501Z,99849.41
2023-04-15T02:45:22.665Z,99850.78
2023-04-15T02:47:59.292Z,99848.59
2023-04-15T02:50:32.943Z,99858.47
2023-04-15T02:53:05.631Z,99861.94
2023-04-15T02:55:43.199Z,99856.59
2023-04-15T02:58:20.022Z,99849.38
2023-04-15T03:00:56.736Z,99850.19
2023-04-15T03:03:32.174Z,99849.66
2023-04-15T03:06:12.286Z,99851.81
2023-04-15T03:08:48.246Z,99849.16
2023-04-15T03:11:23.489Z,99857.97
2023-04-15T03:14:05.581Z,99855.81
2023-04-15T03:17:08.041Z,99859.06
2023-04-15T03:19:39.370Z,99857.75
2023-04-15T03:22:16.882Z,99862.06
2023-04-15T03:24:53.785Z,99867.13
2023-04-15T03:27:41.995Z,99847.44
2023-04-15T03:30:31.165Z,99850.91
2023-04-15T03:33:12.972Z,99866.41
2023-04-15T03:35:48.356Z,99868.53
2023-04-15T03:38:22.813Z,99866.97
2023-04-15T03:41:03.011Z,99883.53
2023-04-15T03:43:37.441Z,99859.31
2023-04-15T03:46:10.214Z,99884.09
2023-04-15T03:48:47.596Z,99880.13
2023-04-15T03:51:23.298Z,99899.63
2023-04-15T03:54:00.974Z,99889.75
2023-04-15T03:56:38.696Z,99903.94
2023-04-15T03:59:11.637Z,99888.72
2023-04-15T04:01:51.529Z,99916.22
2023-04-15T04:04:37.164Z,99912.53
2023-04-15T04:07:12.873Z,99896.56
2023-04-15T04:09:51.834Z,99916.00
2023-04-15T04:12:34.959Z,99928.81
2023-04-15T04:15:15.014Z,99930.44
2023-04-15T04:17:58.748Z,99930.75
2023-04-15T04:20:32.582Z,99914.72
2023-04-15T04:23:13.189Z,99920.56
2023-04-15T04:25:53.307Z,99938.25
2023-04-15T04:28:28.031Z,99939.81
2023-04-15T04:31:02.500Z,99936.63
2023-04-15T04:33:35.788Z,99939.06
2023-04-15T04:36:12.513Z,99941.19
2023-04-15T04:38:47.640Z,99951.06
2023-04-15T04:41:25.612Z,99959.88
2023-04-15T04:44:01.661Z,99962.00
2023-04-15T04:46:38.480Z,99959.56
2023-04-15T04:49:13.458Z,99960.38
2023-04-15T04:51:57.590Z,99951.81
2023-04-15T04:54:33.576Z,99956.59
2023-04-15T04:57:12.741Z,99952.31
2023-04-15T04:59:53.190Z,99953.66
2023-04-15T05:02:28.506Z,99953.91
2023-04-15T05:05:08.587Z,99940.00
2023-04-15T05:07:55.777Z,99956.03
2023-04-15T05:10:33.784Z,99962.69
2023-04-15T05:13:06.817Z,99957.31
2023-04-15T05:15:47.873Z,99951.97
2023-04-15T05:18:26.251Z,99950.84
2023-04-15T05:21:01.808Z,99947.66
2023-04-15T05:23:39.237Z,99945.72
2023-04-15T05:26:15.064Z,99939.06
2023-04-15T05:28:53.505Z,99944.84
2023-04-15T05:31:31.385Z,99950.69
2023-04-15T05:34:15.125Z,99946.66
2023-04-15T05:36:49.083Z,99926.31
2023-04-15T05:39:31.998Z,99954.50
2023-04-15T05:42:07.703Z,99951.00
2023-04-15T05:44:42.384Z,99958.19
2023-04-15T05:47:26.339Z,99951.69
2023-04-15T05:50:00.258Z,99948.41
2023-04-15T05:52:36.625Z,99944.06
2023-04-15T05:55:18.090Z,99933.03
2023-04-15T05:57:55.684Z,99940.72
2023-04-15T06:00:27.993Z,99950.03
2023-04-15T06:03:03.863Z,99947.53
2023-04-15T06:05:35.997Z,99948.78
2023-04-15T06:08:14.588Z,99947.13
2023-04-15T06:10:53.595Z,99959.28
2023-04-15T06:13:27.466Z,99953.38
2023-04-15T06:16:01.176Z,99963.88
2023-04-15T06:18:34.059Z,99966.94
2023-04-15T06:21:14.332Z,99962.78
2023-04-15T06:23:50.668Z,99956.16
2023-04-15T06:26:37.522Z,99952.25
2023-04-15T06:29:10.988Z,99946.16
2023-04-15T06:31:48.065Z,99955.38
2023-04-15T06:34:31.846Z,99948.34
2023-04-15T06:37:06.315Z,99949.53
2023-04-15T06:39:40.000Z,99949.59
2023-04-15T06:42:17.520Z,99955.38
2023-04-15T06:44:59.210Z,99951.34
2023-04-15T06:47:37.414Z,99948.66
2023-04-15T06:50:24.390Z,99955.81
2023-04-15T06:52:58.459Z,99951.56
2023-04-15T06:55:39.743Z,99928.56
2023-04-15T06:58:17.874Z,99955.53
2023-04-15T07:00:50.921Z,99962.47
2023-04-15T07:03:21.812Z,99958.72
2023-04-15T07:05:56.060Z,99944.63
2023-04-15T07:08:34.874Z,99954.69
2023-04-15T07:11:09.306Z,99957.91
2023-04-15T07:13:49.192Z,99960.09
2023-04-15T07:16:19.871Z,99969.97
2023-04-15T07:18:59.039Z,99966.09
2023-04-15T07:21:44.851Z,99970.28
2023-04-15T07:24:24.131Z,99958.72
2023-04-15T07:27:18.532Z,99973.38
2023-04-15T07:29:57.446Z,99974.22
2023-04-15T07:32:34.753Z,99976.72
2023-04-15T07:35:09.956Z,99975.88
2023-04-15T07:37:45.400Z,99977.84
2023-04-15T07:40:22.516Z,99984.19
2023-04-15T07:43:02.401Z,99971.88
2023-04-15T07:45:38.755Z,99977.00
2023-04-15T07:48:16.947Z,99976.69
2023-04-15T07:50:52.939Z,99985.72
2023-04-15T07:53:31.766Z,99978.88
2023-04-15T07:56:05.822Z,99970.75
2023-04-15T07:58:43.978Z,99995.53
2023-04-15T08:01:24.920Z,99975.66
2023-04-15T08:04:15.385Z,99979.75
2023-04-15T08:06:48.583Z,99982.31
2023-04-15T08:09:25.181Z,99984.91
2023-04-15T08:12:09.689Z,99990.03
2023-04-15T08:14:45.872Z,99983.19
2023-04-15T08:17:27.595Z,99998.78
2023-04-15T08:20:13.489Z,100000.06
2023-04-15T08:22:52.342Z,99989.72
2023-04-15T08:25:29.883Z,99986.75
2023-04-15T08:28:06.264Z,99988.41
2023-04-15T08:30:43.684Z,99978.72
2023-04-15T08:33:23.110Z,99991.59
2023-04-15T08:36:05.474Z,99989.75
2023-04-15T08:38:45.354Z,99983.84
2023-04-15T08:41:26.682Z,99978.94
2023-04-15T08:44:06.042Z,99978.16
2023-04-15T08:46:49.160Z,99982.28
2023-04-15T08:49:32.427Z,99992.13
2023-04-15T08:52:11.128Z,99984.66
2023-04-15T08:54:51.376Z,99990.53
2023-04-15T08:57:28.460Z,99990.38
2023-04-15T09:00:05.936Z,99984.97
2023-04-15T09:02:44.911Z,99996.59
2023-04-15T09:05:31.797Z,100008.34
2023-04-15T09:08:09.058Z,100002.16
2023-04-15T09:10:45.614Z,99998.50
2023-04-15T09:13:24.553Z,100002.00
2023-04-15T09:16:01.789Z,99995.00
2023-04-15T09:18:38.374Z,99994.53
2023-04-15T09:21:21.475Z,100002.00
2023-04-15T09:24:03.927Z,99995.91
2023-04-15T09:26:41.259Z,99983.66
2023-04-15T09:29:20.354Z,99990.00
2023-04-15T09:32:01.154Z,99996.66
2023-04-15T09:34:46.162Z,99994.91
2023-04-15T09:37:32.119Z,99999.34
2023-04-15T09:40:19.563Z,99988.69
2023-04-15T09:43:03.679Z,99992.50
2023-04-15T09:45:48.576Z,99980.22
2023-04-15T09:48:24.924Z,99982.25
2023-04-15T09:51:09.586Z,99985.84
2023-04-15T09:53:47.337Z,99980.84
2023-04-15T09:56:22.180Z,99961.44
2023-04-15T09:59:05.165Z,99983.06
2023-04-15T10:01:38.232Z,99981.88
2023-04-15T10:04:24.412Z,99977.78
2023-04-15T10:06:56.164Z,99995.31
2023-04-15T10:09:40.951Z,99985.94
2023-04-15T10:12:27.424Z,99965.78
2023-04-15T10:15:08.372Z,99986.38
2023-04-15T10:17:45.004Z,99995.81
2023-04-15T10:20:20.988Z,100001.22
2023-04-15T10:22:58.431Z,99993.22
2023-04-15T10:25:47.318Z,99997.78
2023-04-15T10:28:34.871Z,99988.84
2023-04-15T10:31:19.041Z,99985.03
2023-04-15T10:33:57.913Z,99992.50
2023-04-15T10:36:34.475Z,99993.25
2023-04-15T10:39:09.708Z,99991.28
2023-04-15T10:41:46.992Z,99989.00
2023-04-15T10:44:22.115Z,99986.84
2023-04-15T10:46:58.782Z,99990.72
2023-04-15T10:49:34.764Z,99986.56
2023-04-15T10:52:12.994Z,99980.22
2023-04-15T10:54:52.041Z,99983.06
2023-04-15T10:57:32.590Z,99984.41
2023-04-15T11:00:13.169Z,99986.25
2023-04-15T11:02:52.741Z,99983.09
2023-04-15T11:05:27.523Z,99986.72
2023-04-15T11:08:10.952Z,99976.91
2023-04-15T11:10:59.721Z,99975.34
2023-04-15T11:13:40.050Z,99970.50
2023-04-15T11:16:14.256Z,99978.88
2023-04-15T11:18:59.561Z,99974.84
2023-04-15T11:21:34.817Z,99972.03
2023-04-15T11:24:15.448Z,99973.16
2023-04-15T11:26:47.977Z,99972.16
2023-04-15T11:29:32.261Z,99974.44
2023-04-15T11:32:23.193Z,99971.38
2023-04-15T11:35:04.986Z,99971.25
2023-04-15T11:37:42.467Z,99971.50
2023-04-15T11:40:19.080Z,99950.88
2023-04-15T11:43:14.263Z,99958.56
2023-04-15T11:45:59.486Z,99954.81
2023-04-15T11:48:43.627Z,99963.69
2023-04-15T11:51:22.084Z,99961.13
2023-04-15T11:53:58.746Z,99967.91
2023-04-15T11:56:40.584Z,99961.78
2023-04-15T11:59:16.430Z,99960.63
2023-04-15T12:02:01.818Z,99945.63
2023-04-15T12:04:39.224Z,99963.47
2023-04-15T12:07:14.331Z,99953.34
2023-04-15T12:10:05.032Z,99954.47
2023-04-15T12:12:35.243Z,99952.63
2023-04-15T12:15:11.518Z,99951.66
2023-04-15T12:17:51.465Z,99950.00
2023-04-15T12:20:36.765Z,99933.22
2023-04-15T12:23:14.273Z,99946.31
2023-04-15T12:25:54.426Z,99948.22
2023-04-15T12:28:36.557Z,99952.91
2023-04-15T12:31:13.695Z,99934.72
2023-04-15T12:33:53.578Z,99945.28
2023-04-15T12:36:40.540Z,99942.28
2023-04-15T12:39:20.369Z,99904.03
2023-04-15T12:42:02.708Z,99949.63
2023-04-15T12:44:41.702Z,99952.94
2023-04-15T12:47:18.858Z,99946.09
2023-04-15T12:49:56.253Z,99945.13
2023-04-15T12:52:29.241Z,99941.31
2023-04-15T12:55:07.049Z,99949.03
2023-04-15T12:57:40.311Z,99935.56
2023-04-15T13:00:19.983Z,99936.25
2023-04-15T13:03:07.482Z,99932.25
2023-04-15T13:05:47.092Z,99933.66
2023-04-15T13:08:27.835Z,99933.06
2023-04-15T13:11:09.361Z,99917.03
2023-04-15T13:13:49.841Z,99935.06
2023-04-15T13:16:24.135Z,99936.03
2023-04-15T13:19:04.605Z,99940.94
2023-04-15T13:21:48.720Z,99940.94
2023-04-15T13:24:30.423Z,99929.06
2023-04-15T13:27:14.737Z,99933.63
2023-04-15T13:29:48.594Z,99931.56
2023-04-15T13:32:22.281Z,99937.25
2023-04-15T13:34:58.638Z,99930.06
2023-04-15T13:37:36.631Z,99928.34
2023-04-15T13:40:12.143Z,99940.69
2023-04-15T13:42:49.015Z,99927.19
2023-04-15T13:45:26.690Z,99936.19
2023-04-15T13:48:04.573Z,99919.88
2023-04-15T13:50:41.833Z,99929.47
2023-04-15T13:53:21.291Z,99924.69
2023-04-15T13:56:10.908Z,99925.69
2023-04-15T13:58:46.307Z,99920.25
2023-04-15T14:01:18.134Z,99930.06
2023-04-15T14:03:50.905Z,99918.97
2023-04-15T14:06:39.598Z,99924.00
2023-04-15T14:09:26.156Z,99923.56
2023-04-15T14:12:00.290Z,99902.22
2023-04-15T14:14:32.298Z,99916.88
2023-04-15T14:17:10.083Z,99911.25
2023-04-15T14:19:46.561Z,99914.97
2023-04-15T14:22:20.263Z,99923.94
2023-04-15T14:25:04.345Z,99927.09
2023-04-15T14:27:40.980Z,99919.91
2023-04-15T14:30:18.620Z,99921.16
2023-04-15T14:32:53.577Z,99919.59
2023-04-15T14:35:35.988Z,99909.50
2023-04-15T14:38:19.579Z,99931.22
2023-04-15T14:40:52.392Z,99935.75
2023-04-15T14:43:28.451Z,99936.50
2023-04-15T14:46:03.531Z,99942.25
2023-04-15T14:48:48.766Z,99945.28
2023-04-15T14:51:27.420Z,99941.94
2023-04-15T14:54:06.418Z,99949.88
2023-04-15T14:56:43.232Z,99939.91
2023-04-15T14:59:20.818Z,99951.50
2023-04-15T15:01:59.071Z,99954.03
2023-04-15T15:07:29.238Z,99971.13
2023-04-15T15:10:11.383Z,99993.41
2023-04-15T15:12:53.862Z,99993.28
2023-04-15T15:15:30.854Z,99975.44
2023-04-15T15:18:09.375Z,100005.44
2023-04-15T15:20:45.413Z,99993.41
2023-04-15T15:23:29.076Z,99995.97
2023-04-15T15:26:05.037Z,99993.09
2023-04-15T15:28:51.332Z,99987.22
2023-04-15T15:31:43.465Z,99986.41
2023-04-15T15:34:17.762Z,99977.19
2023-04-15T15:36:52.796Z,99995.78
2023-04-15T15:39:38.924Z,99997.69
2023-04-15T15:42:22.813Z,99988.47
2023-04-15T15:44:59.854Z,99994.03
2023-04-15T15:47:31.242Z,99994.22
2023-04-15T15:50:07.780Z,100002.63
2023-04-15T15:52:43.375Z,99994.06
2023-04-15T15:55:25.948Z,99994.81
2023-04-15T15:58:00.479Z,99995.41
2023-04-15T16:00:37.527Z,99992.56
2023-04-15T16:03:10.229Z,99997.06
2023-04-15T16:05:42.634Z,99990.47
2023-04-15T16:08:18.614Z,99989.59
2023-04-15T16:11:03.514Z,99992.00
2023-04-15T16:13:39.841Z,99985.44
2023-04-15T16:16:30.435Z,99986.91
2023-04-15T16:19:07.598Z,99989.09
2023-04-15T16:21:43.873Z,99984.78
2023-04-15T16:24:17.752Z,99989.50
2023-04-15T16:26:54.039Z,99997.13
2023-04-15T16:29:33.588Z,99998.69
2023-04-15T16:32:11.890Z,100001.38
2023-04-15T16:34:50.687Z,99999.66
2023-04-15T16:37:41.199Z,100002.31
2023-04-15T16:40:20.120Z,99994.84
2023-04-15T16:43:09.815Z,100001.34
2023-04-15T16:45:55.633Z,100008.13
2023-04-15T16:48:38.852Z,100011.84
2023-04-15T16:51:14.086Z,100009.19
2023-04-15T16:53:55.409Z,100005.28
2023-04-15T16:56:30.976Z,100002.09
2023-04-15T16:59:08.461Z,100004.94
2023-04-15T17:01:46.065Z,100006.78
2023-04-15T17:04:27.535Z,100002.94
2023-04-15T17:07:04.356Z,100016.44
2023-04-15T17:09:44.804Z,100016.28
2023-04-15T17:12:25.763Z,100013.91
2023-04-15T17:14:57.867Z,100018.31
2023-04-15T17:17:40.381Z,100015.63
2023-04-15T17:20:20.154Z,100029.34
2023-04-15T17:22:56.518Z,100028.00
2023-04-15T17:25:32.742Z,100034.75
2023-04-15T17:28:09.946Z,100036.47
2023-04-15T17:30:44.715Z,100038.88
2023-04-15T17:33:55.904Z,100038.03
2023-04-15T17:36:30.807Z,100048.72
2023-04-15T17:39:17.610Z,100035.13
2023-04-15T17:41:52.868Z,100054.84
2023-04-15T17:44:28.311Z,100055.31
2023-04-15T17:47:06.391Z,100052.16
2023-04-15T17:49:42.853Z,100015.53
2023-04-15T17:52:23.077Z,100058.72
2023-04-15T17:55:01.673Z,100066.38
2023-04-15T17:57:44.659Z,100056.38
2023-04-15T18:00:32.148Z,100070.06
2023-04-15T18:03:09.655Z,100064.66
2023-04-15T18:05:54.279Z,100075.94
2023-04-15T18:08:34.153Z,100065.13
2023-04-15T18:11:14.687Z,100058.28
2023-04-15T18:13:49.505Z,100058.53
2023-04-15T18:16:24.511Z,100070.34
2023-04-15T18:19:10.884Z,100074.34
2023-04-15T18:21:51.777Z,100072.19
2023-04-15T18:24:35.963Z,100069.16
2023-04-15T18:27:14.068Z,100067.78
2023-04-15T18:29:48.531Z,100082.25
2023-04-15T18:32:28.100Z,100072.00
2023-04-15T18:35:14.364Z,100077.94
2023-04-15T18:37:51.559Z,100055.72
2023-04-15T18:40:33.749Z,100091.88
2023-04-15T18:43:09.988Z,100087.97
2023-04-15T18:45:44.635Z,100085.00
2023-04-15T18:48:19.577Z,100091.75
2023-04-15T18:50:58.955Z,100096.06
2023-04-15T18:53:34.619Z,100098.47
2023-04-15T18:56:17.312Z,100095.28
2023-04-15T18:59:18.254Z,100108.94
2023-04-15T19:01:55.339Z,100103.38
2023-04-15T19:04:34.385Z,100108.75
2023-04-15T19:07:10.749Z,100118.19
2023-04-15T19:10:02.952Z,100120.50
2023-04-15T19:12:40.502Z,100113.00
2023-04-15T19:15:24.156Z,100103.72
2023-04-15T19:18:14.783Z,100122.84
2023-04-15T19:20:52.982Z,100124.09
2023-04-15T19:23:37.418Z,100109.00
2023-04-15T19:26:13.799Z,100111.72
2023-04-15T19:28:53.403Z,100125.66
2023-04-15T19:31:32.060Z,100131.22
2023-04-15T19:34:10.363Z,100130.25
2023-04-15T19:36:49.114Z,100104.91
2023-04-15T19:39:29.114Z,100128.16
2023-04-15T19:42:10.858Z,100133.84
2023-04-15T19:44:50.783Z,100127.66
2023-04-15T19:47:30.165Z,100119.97
2023-04-15T19:50:29.177Z,100134.75
2023-04-15T19:53:07.944Z,100126.88
2023-04-15T19:55:48.062Z,100138.16
2023-04-15T19:58:22.240Z,100132.09
2023-04-15T20:01:01.957Z,100132.09
2023-04-15T20:03:36.934Z,100135.56
2023-04-15T20:06:11.991Z,100135.88
2023-04-15T20:08:48.474Z,100119.09
2023-04-15T20:12:46.035Z,100134.97
2023-04-15T20:14:26.489Z,100134.34
2023-04-15T20:17:04.461Z,100132.47
2023-04-15T20:19:50.778Z,100135.47
2023-04-15T20:22:32.201Z,100135.78
2023-04-15T20:25:10.558Z,100141.16
2023-04-15T20:27:45.278Z,100137.66
2023-04-15T20:30:20.054Z,100143.44
2023-04-15T20:33:09.162Z,100136.47
2023-04-15T20:35:43.442Z,100142.34
2023-04-15T20:38:19.226Z,100148.81
2023-04-15T20:40:52.816Z,100133.25
2023-04-15T20:43:29.042Z,100138.47
2023-04-15T20:46:10.093Z,100156.91
2023-04-15T20:49:00.400Z,100142.94
2023-04-15T20:51:38.050Z,100156.81
2023-04-15T20:54:20.450Z,100154.63
2023-04-15T20:57:02.462Z,100154.63
2023-04-15T20:59:40.027Z,100158.91
2023-04-15T21:02:10.483Z,100149.81
2023-04-15T21:04:47.427Z,100158.41
2023-04-15T21:07:22.282Z,100161.41
2023-04-15T21:10:02.576Z,100151.03
2023-04-15T21:12:44.640Z,100165.78
2023-04-15T21:15:27.686Z,100157.63
2023-04-15T21:18:10.728Z,100160.63
2023-04-15T21:20:46.695Z,100159.03
2023-04-15T21:23:21.866Z,100155.72
2023-04-15T21:26:12.764Z,100157.81
2023-04-15T21:28:52.384Z,100154.00
2023-04-15T21:31:28.504Z,100165.16
2023-04-15T21:34:09.887Z,100164.97
2023-04-15T21:36:49.866Z,100175.06
2023-04-15T21:39:23.671Z,100180.16
2023-04-15T21:42:01.446Z,100173.16
2023-04-15T21:44:42.942Z,100169.38
2023-04-15T21:47:18.355Z,100177.94
2023-04-15T21:49:54.447Z,100175.78
2023-04-15T21:52:32.145Z,100172.66
2023-04-15T21:55:07.593Z,100169.69
2023-04-15T21:57:46.997Z,100167.00
2023-04-15T22:00:31.041Z,100173.28
2023-04-15T22:03:09.751Z,100154.91
2023-04-15T22:05:53.493Z,100173.00
2023-04-15T22:08:32.120Z,100170.28
2023-04-15T22:11:24.716Z,100174.56
2023-04-15T22:14:08.949Z,100178.94
2023-04-15T22:16:44.222Z,100181.66
2023-04-15T22:19:18.389Z,100179.56
2023-04-15T22:21:59.073Z,100181.75
2023-04-15T22:24:40.875Z,100186.16
2023-04-15T22:27:19.818Z,100167.47
2023-04-15T22:30:01.308Z,100183.41
2023-04-15T22:32:42.267Z,100187.72
2023-04-15T22:35:17.082Z,100204.72
2023-04-15T22:37:56.094Z,100203.66
2023-04-15T22:40:46.122Z,100204.28
2023-04-15T22:43:28.821Z,100198.44
2023-04-15T22:46:18.023Z,100190.16
2023-04-15T22:48:59.737Z,100200.72
2023-04-15T22:51:36.878Z,100207.13
2023-04-15T22:54:13.888Z,100212.97
2023-04-15T22:57:01.777Z,100209.28
2023-04-15T22:59:40.511Z,100185.47
2023-04-15T23:02:13.768Z,100199.66
2023-04-15T23:04:49.184Z,100201.75
2023-04-15T23:07:28.109Z,100197.72
2023-04-15T23:10:11.533Z,100203.66
2023-04-15T23:12:52.164Z,100208.94
2023-04-15T23:15:34.671Z,100208.41
2023-04-15T23:18:14.167Z,100202.22
2023-04-15T23:20:51.647Z,100204.81
2023-04-15T23:23:30.396Z,100195.66
2023-04-15T23:26:04.714Z,100201.25
2023-04-15T23:28:48.089Z,100174.13
2023-04-15T23:31:22.015Z,100198.03
2023-04-15T23:33:57.978Z,100191.53
2023-04-15T23:36:33.502Z,100198.91
2023-04-15T23:39:07.570Z,100193.63
2023-04-15T23:41:48.261Z,100194.13
2023-04-15T23:44:35.687Z,100197.84
2023-04-15T23:47:17.508Z,100206.13
2023-04-15T23:50:06.021Z,100201.91
2023-04-15T23:52:46.584Z,100196.38
2023-04-15T23:55:24.797Z,100189.66
2023-04-15T23:57:57.792Z,100191.16
